Time;durP1;ratioP1;P1;durP2;ratioP2;P2;SDS_P1;SDS_P2;PMS_P1;PMS_P2;Temp;Humidity;BMP_temperature;BMP_pressure;BME280_temperature;BME280_humidity;BME280_pressure;Samples;Min_cycle;Max_cycle;Signal;HPM_P1;HPM_P2
2021/12/26 00:01:02;;;;;;;7.40;4.00;;;-3.20;99.90;;;;;;5038170;28;20181;-79
2021/12/26 00:03:30;;;;;;;8.57;4.30;;;-3.30;99.90;;;;;;5031499;28;20185;-80
2021/12/26 00:06:00;;;;;;;5.73;4.20;;;-3.50;99.90;;;;;;5034590;28;20632;-79
2021/12/26 00:08:26;;;;;;;7.27;4.30;;;-3.60;99.90;;;;;;5036544;28;20178;-80
2021/12/26 00:10:52;;;;;;;7.03;4.30;;;-3.80;99.90;;;;;;5052476;28;20258;-80
2021/12/26 00:13:20;;;;;;;7.27;4.77;;;-3.80;99.90;;;;;;5037946;28;20178;-79
2021/12/26 00:15:46;;;;;;;9.30;5.40;;;-3.90;99.90;;;;;;5037786;28;20173;-79
2021/12/26 00:18:13;;;;;;;10.37;5.20;;;-3.90;99.90;;;;;;5033515;28;20968;-79
2021/12/26 00:20:40;;;;;;;10.83;6.20;;;-3.90;99.90;;;;;;5033112;28;20205;-79
2021/12/26 00:23:06;;;;;;;11.73;7.10;;;-3.90;99.90;;;;;;5029778;28;20172;-79
2021/12/26 00:25:33;;;;;;;11.60;7.17;;;-4.00;99.90;;;;;;5037301;28;20189;-79
2021/12/26 00:28:00;;;;;;;13.13;7.73;;;-4.20;99.90;;;;;;5031544;28;20234;-79
2021/12/26 00:30:26;;;;;;;14.60;7.33;;;-4.30;99.90;;;;;;5036496;28;20644;-79
2021/12/26 00:32:52;;;;;;;11.10;7.20;;;-4.50;99.90;;;;;;5036782;28;20626;-79
2021/12/26 00:35:20;;;;;;;11.20;7.30;;;-4.50;99.90;;;;;;5037460;28;20180;-79
2021/12/26 00:37:47;;;;;;;13.17;6.97;;;-4.50;99.90;;;;;;5037060;28;20176;-79
2021/12/26 00:40:15;;;;;;;11.17;7.40;;;-4.50;99.90;;;;;;5048235;28;20213;-79
2021/12/26 00:42:41;;;;;;;13.03;6.70;;;-4.50;99.90;;;;;;5051320;28;20180;-79
2021/12/26 00:45:08;;;;;;;13.93;7.20;;;-4.40;99.90;;;;;;5036300;28;20173;-79
2021/12/26 00:47:34;;;;;;;9.97;6.17;;;-4.40;99.90;;;;;;5028419;28;20186;-78
2021/12/26 00:50:01;;;;;;;9.07;6.07;;;-4.50;99.90;;;;;;5036501;28;20273;-79
2021/12/26 00:52:26;;;;;;;11.50;6.93;;;-4.40;99.90;;;;;;5052158;28;20605;-79
2021/12/26 00:54:53;;;;;;;10.87;6.80;;;-4.40;99.90;;;;;;5038044;28;20177;-79
2021/12/26 00:57:19;;;;;;;13.47;6.93;;;-4.30;99.90;;;;;;5031733;28;20601;-79
2021/12/26 00:59:45;;;;;;;14.37;7.03;;;-4.20;99.90;;;;;;5035101;28;20212;-79
2021/12/26 01:02:14;;;;;;;12.57;6.73;;;-4.10;99.90;;;;;;5032019;28;20181;-79
2021/12/26 01:04:41;;;;;;;11.73;7.73;;;-4.20;99.90;;;;;;5035514;28;20184;-80
2021/12/26 01:07:14;;;;;;;12.00;8.43;;;-4.40;99.90;;;;;;5038893;28;20165;-79
2021/12/26 01:09:43;;;;;;;12.27;7.33;;;-4.50;99.90;;;;;;5035653;28;20284;-79
2021/12/26 01:12:13;;;;;;;17.03;9.00;;;-4.50;99.90;;;;;;5038336;28;20177;-79
2021/12/26 01:14:47;;;;;;;13.87;8.07;;;-4.20;99.90;;;;;;5036024;28;20169;-79
2021/12/26 01:17:54;;;;;;;15.40;8.03;;;-4.00;99.90;;;;;;5046645;28;20188;-79
2021/12/26 01:20:50;;;;;;;9.53;7.07;;;-3.90;99.90;;;;;;5033098;28;20201;-80
2021/12/26 01:23:19;;;;;;;11.87;8.40;;;-3.80;99.90;;;;;;5034305;28;20166;-79
2021/12/26 01:25:46;;;;;;;12.80;7.90;;;-3.90;99.90;;;;;;5045750;28;20184;-78
2021/12/26 01:28:12;;;;;;;12.17;7.00;;;-4.00;99.90;;;;;;5034823;28;20243;-79
2021/12/26 01:30:39;;;;;;;14.40;7.80;;;-4.20;99.90;;;;;;5036604;28;20200;-79
2021/12/26 01:33:11;;;;;;;11.03;7.03;;;-4.20;99.90;;;;;;5030049;28;20178;-80
2021/12/26 01:36:04;;;;;;;9.70;6.53;;;-4.60;99.90;;;;;;5039083;28;20191;-79
2021/12/26 01:38:58;;;;;;;16.80;7.17;;;-4.80;99.90;;;;;;5030152;28;20280;-79
2021/12/26 01:41:39;;;;;;;10.80;6.90;;;-4.80;99.90;;;;;;5030064;28;20275;-79
2021/12/26 01:44:20;;;;;;;10.53;6.77;;;-4.80;99.90;;;;;;5038245;28;20173;-78
2021/12/26 01:46:49;;;;;;;12.27;7.40;;;-4.90;99.90;;;;;;5041570;28;20196;-79
2021/12/26 01:49:23;;;;;;;14.23;7.60;;;-5.10;99.90;;;;;;5043018;28;20205;-77
2021/12/26 01:51:53;;;;;;;15.07;7.60;;;-5.20;99.90;;;;;;5061140;28;20397;-79
2021/12/26 01:55:01;;;;;;;12.53;7.77;;;-5.40;99.90;;;;;;5048909;28;20181;-79
2021/12/26 01:57:17;;;;;;;13.37;7.63;;;-5.50;99.90;;;;;;5058945;28;20413;-79
2021/12/26 01:59:46;;;;;;;12.47;7.03;;;-5.60;99.90;;;;;;5047637;28;20191;-76
2021/12/26 02:02:15;;;;;;;12.23;6.70;;;-5.70;99.90;;;;;;5050459;28;20160;-77
2021/12/26 02:04:43;;;;;;;10.53;6.70;;;-5.80;99.90;;;;;;5055361;28;20195;-76
2021/12/26 02:07:11;;;;;;;10.73;6.60;;;-5.80;99.90;;;;;;5047280;28;20172;-76
2021/12/26 02:09:39;;;;;;;12.60;6.93;;;-5.80;99.90;;;;;;5048543;28;20192;-76
2021/12/26 02:12:06;;;;;;;11.57;6.93;;;-5.60;99.90;;;;;;5049814;28;20193;-77
2021/12/26 02:14:33;;;;;;;14.37;7.30;;;-5.50;99.90;;;;;;5063012;28;20191;-78
2021/12/26 02:17:24;;;;;;;10.67;7.00;;;-5.40;99.90;;;;;;5051397;28;20161;-79
2021/12/26 02:19:53;;;;;;;10.17;6.40;;;-5.40;99.90;;;;;;5049302;28;20706;-79
2021/12/26 02:22:27;;;;;;;12.07;7.30;;;-5.40;99.90;;;;;;5044822;28;20177;-77
2021/12/26 02:27:31;;;;;;;14.70;7.50;;;-5.10;99.90;;;;;;5059784;28;20196;-78
2021/12/26 02:30:06;;;;;;;14.50;7.57;;;-4.90;99.90;;;;;;5036125;28;20342;-79
2021/12/26 02:32:32;;;;;;;12.77;7.37;;;-4.80;99.90;;;;;;5050663;28;20218;-79
2021/12/26 02:34:59;;;;;;;13.60;7.53;;;-4.60;99.90;;;;;;5033953;28;20165;-78
2021/12/26 02:37:25;;;;;;;12.87;7.20;;;-4.60;99.90;;;;;;5051069;28;20183;-79
2021/12/26 02:39:52;;;;;;;18.60;7.53;;;-4.40;99.90;;;;;;5034408;28;20197;-79
2021/12/26 02:42:19;;;;;;;16.13;8.13;;;-4.30;99.90;;;;;;5031686;28;20173;-79
2021/12/26 02:44:45;;;;;;;17.00;8.83;;;-4.40;99.90;;;;;;5031888;28;20696;-80
2021/12/26 02:47:11;;;;;;;16.13;7.87;;;-4.50;99.90;;;;;;5030577;28;20173;-79
2021/12/26 02:49:37;;;;;;;11.47;7.60;;;-4.50;99.90;;;;;;5030536;28;20277;-79
2021/12/26 02:52:03;;;;;;;13.13;7.47;;;-4.40;99.90;;;;;;5038235;28;20201;-79
2021/12/26 02:54:29;;;;;;;15.60;8.67;;;-4.30;99.90;;;;;;5033841;28;20205;-78
2021/12/26 02:56:55;;;;;;;11.10;6.50;;;-4.30;99.90;;;;;;5033111;28;20173;-77
2021/12/26 02:59:31;;;;;;;11.97;6.40;;;-4.40;99.90;;;;;;5035763;28;20192;-77
2021/12/26 03:01:57;;;;;;;11.67;6.20;;;-4.50;99.90;;;;;;5025541;28;20695;-78
2021/12/26 03:04:22;;;;;;;10.37;5.37;;;-4.80;99.90;;;;;;5036217;28;20264;-77
2021/12/26 03:09:14;;;;;;;8.60;5.10;;;-5.00;99.90;;;;;;5047116;28;20545;-77
2021/12/26 03:11:45;;;;;;;8.67;5.47;;;-5.40;99.90;;;;;;5040097;28;20197;-77
2021/12/26 03:14:11;;;;;;;10.97;5.47;;;-5.50;99.90;;;;;;5038998;28;20170;-77
2021/12/26 03:16:37;;;;;;;9.83;6.23;;;-5.50;99.90;;;;;;5046714;28;20245;-77
2021/12/26 03:19:03;;;;;;;9.60;6.93;;;-5.50;99.90;;;;;;5029345;28;20208;-77
2021/12/26 03:21:29;;;;;;;10.83;6.67;;;-5.60;99.90;;;;;;5030403;28;20190;-77
2021/12/26 03:23:56;;;;;;;11.10;7.40;;;-5.80;99.90;;;;;;5035833;28;20180;-77
2021/12/26 03:26:22;;;;;;;14.53;8.00;;;-6.00;99.90;;;;;;5024623;28;20174;-77
2021/12/26 03:28:50;;;;;;;17.20;7.93;;;-6.10;99.90;;;;;;5033527;28;20540;-77
2021/12/26 03:31:16;;;;;;;16.23;7.93;;;-5.70;99.90;;;;;;5048774;28;20197;-77
2021/12/26 03:33:42;;;;;;;14.30;8.93;;;-5.40;99.90;;;;;;5041080;28;20180;-77
2021/12/26 03:36:08;;;;;;;12.87;8.27;;;-5.20;99.90;;;;;;5051635;28;20544;-77
2021/12/26 03:38:35;;;;;;;14.57;7.93;;;-5.10;99.90;;;;;;5033537;28;20544;-77
2021/12/26 03:41:15;;;;;;;17.07;8.63;;;-4.90;99.90;;;;;;5030778;28;20189;-77
2021/12/26 03:43:46;;;;;;;17.67;9.13;;;-4.70;99.90;;;;;;5035845;28;20418;-77
2021/12/26 03:46:12;;;;;;;16.53;8.40;;;-4.70;99.90;;;;;;5034105;28;20173;-77
2021/12/26 03:48:38;;;;;;;17.07;8.00;;;-4.90;99.90;;;;;;5034856;28;20173;-77
2021/12/26 03:51:05;;;;;;;15.10;7.67;;;-5.20;99.90;;;;;;5031686;28;20259;-78
2021/12/26 03:53:31;;;;;;;14.23;7.83;;;-5.50;99.90;;;;;;5030145;28;20174;-77
2021/12/26 03:55:58;;;;;;;13.20;7.83;;;-5.40;99.90;;;;;;5032936;28;20227;-77
2021/12/26 03:58:25;;;;;;;15.77;8.30;;;-5.40;99.90;;;;;;5031700;28;20261;-77
2021/12/26 04:00:53;;;;;;;13.27;7.93;;;-5.50;99.90;;;;;;5033367;28;20189;-78
2021/12/26 04:03:22;;;;;;;12.60;7.50;;;-5.60;99.90;;;;;;5039155;28;20179;-78
2021/12/26 04:05:56;;;;;;;14.33;7.53;;;-5.70;99.90;;;;;;5037842;28;20426;-77
2021/12/26 04:08:22;;;;;;;14.77;7.73;;;-5.50;99.90;;;;;;5022930;28;20170;-77
2021/12/26 04:10:49;;;;;;;14.83;6.77;;;-5.60;99.90;;;;;;5032265;28;20205;-77
2021/12/26 04:13:15;;;;;;;13.23;7.43;;;-5.50;99.90;;;;;;5034476;28;20258;-77
2021/12/26 04:15:41;;;;;;;13.60;7.40;;;-5.40;99.90;;;;;;5052006;28;20212;-77
2021/12/26 04:18:07;;;;;;;11.57;7.37;;;-5.50;99.90;;;;;;5028467;28;20262;-77
2021/12/26 04:20:34;;;;;;;12.67;7.47;;;-5.60;99.90;;;;;;5022198;28;20771;-76
2021/12/26 04:23:01;;;;;;;15.13;8.03;;;-5.60;99.90;;;;;;5028876;28;20176;-77
2021/12/26 04:25:27;;;;;;;14.60;7.80;;;-5.60;99.90;;;;;;5047124;28;20191;-77
2021/12/26 04:27:54;;;;;;;15.23;7.90;;;-5.30;99.90;;;;;;5035914;28;20232;-78
2021/12/26 04:30:20;;;;;;;10.97;6.80;;;-5.10;99.90;;;;;;5029347;28;20208;-77
2021/12/26 04:32:46;;;;;;;11.33;7.17;;;-5.10;99.90;;;;;;5026604;28;20584;-77
2021/12/26 04:35:14;;;;;;;12.33;7.33;;;-5.10;99.90;;;;;;5040830;28;20174;-78
2021/12/26 04:37:39;;;;;;;13.90;7.50;;;-5.00;99.90;;;;;;5031478;28;20170;-77
2021/12/26 04:40:09;;;;;;;15.20;7.93;;;-5.00;99.90;;;;;;5027331;28;20665;-77
2021/12/26 04:42:53;;;;;;;12.70;7.50;;;-4.70;99.90;;;;;;5032884;28;20181;-77
2021/12/26 04:45:31;;;;;;;13.37;8.03;;;-4.60;99.90;;;;;;5035971;28;20173;-78
2021/12/26 04:48:29;;;;;;;12.33;7.17;;;-4.60;99.90;;;;;;5039901;28;20188;-77
2021/12/26 04:50:55;;;;;;;13.63;7.20;;;-5.00;99.90;;;;;;5047330;28;20285;-77
2021/12/26 04:53:21;;;;;;;14.13;6.83;;;-5.30;99.90;;;;;;5059454;28;20173;-77
2021/12/26 04:55:46;;;;;;;14.90;6.67;;;-5.30;99.90;;;;;;5058889;28;20169;-77
2021/12/26 04:58:12;;;;;;;14.23;7.03;;;-5.00;99.90;;;;;;5062024;28;20165;-77
2021/12/26 05:00:38;;;;;;;11.33;5.63;;;-4.80;99.90;;;;;;5056099;28;20181;-77
2021/12/26 05:03:06;;;;;;;12.27;6.20;;;-4.70;99.90;;;;;;5064953;28;20240;-77
2021/12/26 05:05:32;;;;;;;11.53;5.60;;;-4.90;99.90;;;;;;5060252;28;20169;-76
2021/12/26 05:07:58;;;;;;;9.57;5.13;;;-5.10;99.90;;;;;;5078851;28;20188;-76
2021/12/26 05:10:28;;;;;;;8.40;5.43;;;-4.90;99.90;;;;;;5052922;28;20267;-77
2021/12/26 05:12:55;;;;;;;8.13;4.90;;;-4.80;99.90;;;;;;5063428;28;20164;-77
2021/12/26 05:15:21;;;;;;;10.77;5.00;;;-4.90;99.90;;;;;;5048487;28;20169;-77
2021/12/26 05:17:51;;;;;;;10.20;4.97;;;-5.20;99.90;;;;;;5056915;28;20185;-78
2021/12/26 05:20:23;;;;;;;6.13;4.43;;;-5.30;99.90;;;;;;5047628;28;20193;-78
2021/12/26 05:22:51;;;;;;;6.10;4.13;;;-5.40;99.90;;;;;;5053198;28;20208;-78
2021/12/26 05:25:18;;;;;;;8.67;4.40;;;-5.50;99.90;;;;;;5037812;28;20173;-78
2021/12/26 05:27:43;;;;;;;9.67;4.80;;;-5.50;99.90;;;;;;5027669;28;20192;-78
2021/12/26 05:30:16;;;;;;;10.67;4.43;;;-5.50;99.90;;;;;;5047715;28;20193;-78
2021/12/26 05:32:44;;;;;;;8.83;4.40;;;-5.60;99.90;;;;;;5034635;28;20169;-78
2021/12/26 05:35:13;;;;;;;9.87;4.23;;;-5.60;99.90;;;;;;5028740;28;20166;-78
2021/12/26 05:37:40;;;;;;;7.50;3.50;;;-5.40;99.90;;;;;;5037903;28;20180;-78
2021/12/26 05:40:08;;;;;;;6.43;3.57;;;-5.30;99.90;;;;;;5027063;28;20194;-78
2021/12/26 05:42:34;;;;;;;6.00;4.10;;;-5.40;99.90;;;;;;5020494;28;20173;-78
2021/12/26 05:45:01;;;;;;;7.30;3.60;;;-5.80;99.90;;;;;;5028660;28;20165;-78
2021/12/26 05:47:27;;;;;;;6.07;3.43;;;-6.00;99.90;;;;;;5036612;28;20434;-78
2021/12/26 05:49:57;;;;;;;5.57;3.70;;;-6.10;99.90;;;;;;5041757;28;20678;-78
2021/12/26 05:52:25;;;;;;;6.03;3.67;;;-5.90;99.90;;;;;;5020864;28;20260;-78
2021/12/26 05:55:03;;;;;;;5.67;3.77;;;-5.80;99.90;;;;;;5029726;28;20526;-77
2021/12/26 05:57:29;;;;;;;4.43;3.50;;;-5.60;99.90;;;;;;5034177;28;20594;-77
2021/12/26 05:59:56;;;;;;;7.53;3.67;;;-5.40;99.90;;;;;;5043373;28;20189;-77
2021/12/26 06:02:23;;;;;;;7.30;3.50;;;-5.30;99.90;;;;;;5036630;28;20172;-77
2021/12/26 06:04:49;;;;;;;5.70;3.80;;;-5.60;99.90;;;;;;5032687;28;20268;-77
2021/12/26 06:07:15;;;;;;;6.30;3.43;;;-5.70;99.90;;;;;;5033430;28;20674;-78
2021/12/26 06:09:42;;;;;;;7.90;4.10;;;-5.80;99.90;;;;;;5027900;28;20207;-78
2021/12/26 06:12:08;;;;;;;13.63;5.83;;;-6.00;99.90;;;;;;5037957;28;20201;-77
2021/12/26 06:14:34;;;;;;;11.47;6.23;;;-6.10;99.90;;;;;;5020605;28;20170;-76
2021/12/26 06:17:00;;;;;;;11.37;5.70;;;-6.20;99.90;;;;;;5051621;28;20702;-77
2021/12/26 06:19:46;;;;;;;20.90;5.90;;;-6.40;99.90;;;;;;5047573;28;20192;-77
2021/12/26 06:22:26;;;;;;;14.30;6.10;;;-6.00;99.90;;;;;;5034909;28;20632;-77
2021/12/26 06:25:15;;;;;;;11.13;5.90;;;-5.80;99.90;;;;;;5040509;28;20173;-77
2021/12/26 06:27:49;;;;;;;13.00;6.37;;;-5.70;99.90;;;;;;5039662;28;20666;-77
2021/12/26 06:30:33;;;;;;;12.17;6.00;;;-5.80;99.90;;;;;;5037670;28;20244;-77
2021/12/26 06:33:17;;;;;;;14.50;6.57;;;-5.80;99.90;;;;;;5041359;28;20612;-77
2021/12/26 06:36:16;;;;;;;11.97;6.53;;;-5.70;99.90;;;;;;5051595;28;20169;-76
2021/12/26 06:39:13;;;;;;;14.27;5.47;;;-5.70;99.90;;;;;;5003408;28;20672;-77
2021/12/26 06:41:57;;;;;;;11.20;5.10;;;-5.70;99.90;;;;;;4997776;28;20201;-77
2021/12/26 06:44:46;;;;;;;8.23;4.53;;;-5.90;99.90;;;;;;5053662;28;20256;-77
2021/12/26 06:47:25;;;;;;;9.20;4.03;;;-6.00;99.90;;;;;;5042493;28;20205;-77
2021/12/26 06:49:51;;;;;;;6.93;4.03;;;-5.90;99.90;;;;;;5012045;28;20432;-76
2021/12/26 06:52:19;;;;;;;8.97;4.00;;;-6.00;99.90;;;;;;5025028;28;20218;-77
2021/12/26 06:54:48;;;;;;;6.03;3.50;;;-6.00;99.90;;;;;;5034893;28;20173;-76
2021/12/26 06:57:13;;;;;;;6.53;3.30;;;-6.10;99.90;;;;;;5025644;28;20174;-78
2021/12/26 06:59:39;;;;;;;6.07;3.57;;;-6.30;99.90;;;;;;5020679;28;20338;-78
2021/12/26 07:02:13;;;;;;;5.27;3.50;;;-6.30;99.90;;;;;;5028249;28;20540;-78
2021/12/26 07:04:48;;;;;;;4.83;3.50;;;-6.20;99.90;;;;;;5018307;28;20215;-78
2021/12/26 07:07:17;;;;;;;7.40;3.50;;;-6.20;99.90;;;;;;5046747;28;20638;-78
2021/12/26 07:09:43;;;;;;;6.23;3.50;;;-6.20;99.90;;;;;;5030400;28;20616;-78
2021/12/26 07:12:11;;;;;;;6.00;3.70;;;-6.20;99.90;;;;;;5022796;28;20192;-77
2021/12/26 07:14:42;;;;;;;8.27;4.67;;;-6.30;99.90;;;;;;5037388;28;20181;-77
2021/12/26 07:17:23;;;;;;;7.60;4.60;;;-6.40;99.90;;;;;;5037376;28;20419;-77
2021/12/26 07:19:52;;;;;;;9.20;4.23;;;-6.50;99.90;;;;;;5024298;28;20439;-78
2021/12/26 07:22:56;;;;;;;8.57;4.50;;;-6.20;99.90;;;;;;4988014;28;20410;-77
2021/12/26 07:25:22;;;;;;;12.83;5.67;;;-6.00;99.90;;;;;;4979384;28;20534;-76
2021/12/26 07:27:47;;;;;;;13.90;5.13;;;-6.10;99.90;;;;;;5021216;28;20193;-77
2021/12/26 07:30:36;;;;;;;11.10;5.37;;;-6.10;99.90;;;;;;5022330;28;20254;-77
2021/12/26 07:33:02;;;;;;;9.70;5.17;;;-5.90;99.90;;;;;;5046009;28;20224;-78
2021/12/26 07:35:28;;;;;;;10.67;5.63;;;-5.70;99.90;;;;;;5029199;28;20173;-76
2021/12/26 07:38:09;;;;;;;9.93;5.73;;;-5.60;99.90;;;;;;5041080;28;20288;-76
2021/12/26 07:40:35;;;;;;;12.07;5.43;;;-5.40;99.90;;;;;;5040271;28;20272;-77
2021/12/26 07:43:07;;;;;;;10.03;5.43;;;-5.30;99.90;;;;;;5023940;28;20178;-77
2021/12/26 07:45:52;;;;;;;11.13;5.83;;;-5.40;99.90;;;;;;5042825;28;20181;-77
2021/12/26 07:48:18;;;;;;;11.90;5.67;;;-5.60;99.90;;;;;;5030416;28;20199;-77
2021/12/26 07:50:44;;;;;;;9.53;5.00;;;-5.70;99.90;;;;;;5031597;28;21805;-78
2021/12/26 07:53:30;;;;;;;6.93;4.57;;;-5.80;99.90;;;;;;5048750;28;20652;-78
2021/12/26 07:56:14;;;;;;;7.63;4.50;;;-5.60;99.90;;;;;;5050913;28;20647;-78
2021/12/26 07:59:12;;;;;;;6.40;4.10;;;-5.70;99.90;;;;;;5034952;28;20220;-77
2021/12/26 08:01:56;;;;;;;5.67;3.70;;;-5.40;99.90;;;;;;5050681;28;20188;-77
2021/12/26 08:04:56;;;;;;;5.87;4.40;;;-5.60;99.90;;;;;;5043981;28;20197;-76
2021/12/26 08:07:39;;;;;;;8.10;4.40;;;-5.80;99.90;;;;;;5053579;28;20240;-77
2021/12/26 08:10:06;;;;;;;7.50;4.20;;;-6.20;99.90;;;;;;5035787;28;20209;-77
2021/12/26 08:12:32;;;;;;;9.93;5.53;;;-6.40;99.90;;;;;;5026648;28;20196;-78
2021/12/26 08:15:01;;;;;;;12.37;5.33;;;-6.60;99.90;;;;;;5025160;28;20250;-79
2021/12/26 08:17:27;;;;;;;15.10;5.17;;;-6.60;99.90;;;;;;5040077;28;20172;-79
2021/12/26 08:19:53;;;;;;;6.30;4.13;;;-6.40;99.90;;;;;;5028323;28;20216;-78
2021/12/26 08:22:18;;;;;;;7.73;4.77;;;-6.10;99.90;;;;;;5035883;28;20335;-78
2021/12/26 08:24:44;;;;;;;7.67;4.77;;;-5.70;99.90;;;;;;5032365;28;20175;-78
2021/12/26 08:27:10;;;;;;;9.67;5.30;;;-5.50;99.90;;;;;;5027869;28;20228;-77
2021/12/26 08:29:36;;;;;;;9.63;5.30;;;-5.30;99.90;;;;;;5030512;28;20236;-78
2021/12/26 08:32:01;;;;;;;8.27;5.13;;;-5.20;99.90;;;;;;5026889;28;20204;-78
2021/12/26 08:34:27;;;;;;;9.87;5.50;;;-5.10;99.90;;;;;;5031509;28;20183;-79
2021/12/26 08:37:01;;;;;;;8.17;4.90;;;-5.30;99.90;;;;;;5031783;28;20218;-79
2021/12/26 08:39:28;;;;;;;9.70;5.23;;;-5.30;99.90;;;;;;5034727;28;20195;-79
2021/12/26 08:41:55;;;;;;;10.33;5.60;;;-5.50;99.90;;;;;;5035117;28;20189;-78
2021/12/26 08:44:22;;;;;;;7.90;5.13;;;-5.80;99.90;;;;;;5034656;28;20184;-78
2021/12/26 08:46:48;;;;;;;8.77;5.03;;;-6.10;99.90;;;;;;5035927;28;20177;-79
2021/12/26 08:49:14;;;;;;;11.07;5.10;;;-6.10;99.90;;;;;;5035487;28;20231;-79
2021/12/26 08:51:41;;;;;;;9.97;5.33;;;-6.30;99.90;;;;;;5036825;28;20223;-80
2021/12/26 08:54:06;;;;;;;10.63;5.80;;;-6.30;99.90;;;;;;5030549;28;20515;-80
2021/12/26 08:56:43;;;;;;;8.83;5.40;;;-6.30;99.90;;;;;;5033227;28;20683;-80
2021/12/26 08:59:09;;;;;;;10.83;5.57;;;-6.20;99.90;;;;;;5039831;28;20219;-81
2021/12/26 09:01:35;;;;;;;8.77;5.37;;;-5.90;99.90;;;;;;5051204;28;20208;-80
2021/12/26 09:04:03;;;;;;;11.80;6.63;;;-5.70;99.90;;;;;;5034494;28;20968;-80
2021/12/26 09:06:28;;;;;;;13.53;6.27;;;-5.50;99.90;;;;;;5032108;28;20177;-80
2021/12/26 09:08:54;;;;;;;14.27;5.97;;;-5.40;99.90;;;;;;5028128;28;20235;-80
2021/12/26 09:11:20;;;;;;;11.33;5.43;;;-5.10;99.90;;;;;;5054118;28;20201;-79
2021/12/26 09:13:47;;;;;;;9.53;5.47;;;-5.00;99.90;;;;;;5032099;28;20176;-80
2021/12/26 09:16:12;;;;;;;6.80;4.47;;;-5.00;99.90;;;;;;5032113;28;20631;-80
2021/12/26 09:18:38;;;;;;;8.87;5.00;;;-5.00;99.90;;;;;;5032472;28;20204;-81
2021/12/26 09:21:05;;;;;;;10.13;4.77;;;-4.90;99.90;;;;;;5032735;28;20500;-80
2021/12/26 09:23:31;;;;;;;7.20;3.77;;;-5.20;99.90;;;;;;5034541;28;20656;-80
2021/12/26 09:25:57;;;;;;;6.53;4.47;;;-5.40;99.90;;;;;;5033919;28;20263;-81
2021/12/26 09:28:23;;;;;;;6.17;4.23;;;-5.50;99.90;;;;;;5051131;28;20185;-81
2021/12/26 09:30:48;;;;;;;10.87;4.70;;;-5.40;99.90;;;;;;5052943;28;20205;-80
2021/12/26 09:33:19;;;;;;;7.57;4.60;;;-5.30;99.90;;;;;;5035014;28;20165;-80
2021/12/26 09:35:49;;;;;;;7.00;4.43;;;-5.20;99.90;;;;;;5051363;28;20208;-81
2021/12/26 09:38:34;;;;;;;7.33;4.23;;;-5.30;99.90;;;;;;5031576;28;20180;-80
2021/12/26 09:41:00;;;;;;;7.20;4.40;;;-5.40;99.90;;;;;;5030867;28;20197;-81
2021/12/26 09:43:26;;;;;;;7.67;4.57;;;-5.50;99.90;;;;;;5039154;28;20555;-81
2021/12/26 09:45:52;;;;;;;8.53;4.43;;;-5.40;99.90;;;;;;5029755;28;20225;-80
2021/12/26 09:48:19;;;;;;;5.90;4.27;;;-5.50;99.90;;;;;;5026976;28;20192;-80
2021/12/26 09:50:46;;;;;;;5.67;3.70;;;-5.50;99.90;;;;;;5028827;28;20558;-80
2021/12/26 09:53:12;;;;;;;9.63;4.30;;;-5.40;99.90;;;;;;5031655;28;20205;-80
2021/12/26 09:55:38;;;;;;;8.60;4.03;;;-5.30;99.90;;;;;;5028660;28;20173;-80
2021/12/26 09:58:04;;;;;;;5.87;4.00;;;-5.30;99.90;;;;;;5033132;28;20177;-80
2021/12/26 10:00:34;;;;;;;7.03;3.93;;;-5.20;99.90;;;;;;5032601;28;20292;-80
2021/12/26 10:03:15;;;;;;;7.93;3.70;;;-5.20;99.90;;;;;;5028766;28;20173;-79
2021/12/26 10:06:03;;;;;;;5.77;3.73;;;-5.20;99.90;;;;;;5032887;28;20191;-81
2021/12/26 10:08:33;;;;;;;4.63;2.87;;;-5.20;99.90;;;;;;5041318;28;20199;-80
2021/12/26 10:11:14;;;;;;;5.63;3.27;;;-5.30;99.90;;;;;;5031259;28;20243;-79
2021/12/26 10:13:54;;;;;;;4.73;3.00;;;-5.50;99.90;;;;;;5022450;28;20185;-80
2021/12/26 10:16:23;;;;;;;7.60;3.70;;;-5.50;99.90;;;;;;5045964;28;20180;-80
2021/12/26 10:18:49;;;;;;;3.60;2.90;;;-5.50;99.90;;;;;;5037540;28;20200;-80
2021/12/26 10:21:21;;;;;;;4.93;2.63;;;-5.60;99.90;;;;;;5039545;28;20242;-79
2021/12/26 10:23:47;;;;;;;4.43;2.97;;;-5.50;99.90;;;;;;5054329;28;20585;-80
2021/12/26 10:26:26;;;;;;;8.03;3.00;;;-5.50;99.90;;;;;;5033441;28;20178;-81
2021/12/26 10:29:09;;;;;;;3.70;2.83;;;-5.50;99.90;;;;;;5032758;28;20549;-81
2021/12/26 10:31:37;;;;;;;4.20;2.57;;;-5.40;99.90;;;;;;5049265;28;20211;-80
2021/12/26 10:34:03;;;;;;;4.60;2.77;;;-5.30;99.90;;;;;;5030493;28;20162;-80
2021/12/26 10:36:45;;;;;;;5.00;3.00;;;-5.30;99.90;;;;;;5029795;28;20173;-79
2021/12/26 10:39:14;;;;;;;6.60;3.30;;;-5.10;99.90;;;;;;5026539;28;20197;-80
2021/12/26 10:41:42;;;;;;;5.93;3.20;;;-5.20;99.90;;;;;;5031694;28;20552;-80
2021/12/26 10:44:22;;;;;;;4.83;3.00;;;-5.10;99.90;;;;;;5034888;28;20847;-80
2021/12/26 10:46:50;;;;;;;4.30;2.70;;;-5.00;99.90;;;;;;5031446;28;20271;-80
2021/12/26 10:49:31;;;;;;;7.07;3.03;;;-4.90;99.90;;;;;;5025161;28;20204;-80
2021/12/26 10:51:58;;;;;;;5.50;2.83;;;-4.90;99.90;;;;;;5048710;28;20201;-80
2021/12/26 10:54:26;;;;;;;4.57;3.13;;;-4.90;99.90;;;;;;5031354;28;20230;-79
2021/12/26 10:57:19;;;;;;;6.40;3.00;;;-4.90;99.90;;;;;;5040334;28;20190;-79
2021/12/26 11:00:16;;;;;;;4.03;2.50;;;-4.90;99.90;;;;;;5022829;28;20229;-80
2021/12/26 11:02:48;;;;;;;4.97;3.10;;;-4.80;99.90;;;;;;5030333;28;20172;-79
2021/12/26 11:05:17;;;;;;;5.50;2.80;;;-4.70;99.90;;;;;;5051461;28;20192;-80
2021/12/26 11:07:52;;;;;;;4.63;2.80;;;-4.60;99.90;;;;;;5062689;28;20188;-80
2021/12/26 11:10:20;;;;;;;4.30;2.40;;;-4.40;99.90;;;;;;5060305;28;20189;-79
2021/12/26 11:12:49;;;;;;;5.50;3.27;;;-4.40;99.90;;;;;;5075265;28;20172;-79
2021/12/26 11:15:16;;;;;;;5.73;3.00;;;-4.30;99.90;;;;;;5059771;28;20172;-80
2021/12/26 11:17:53;;;;;;;5.03;3.13;;;-4.30;99.90;;;;;;5052019;28;20181;-80
2021/12/26 11:20:40;;;;;;;5.43;2.90;;;-4.20;99.90;;;;;;5054863;28;20292;-81
2021/12/26 11:23:15;;;;;;;5.40;2.40;;;-4.20;99.90;;;;;;5047057;28;20177;-81
2021/12/26 11:25:44;;;;;;;4.07;2.80;;;-4.20;99.90;;;;;;5047131;28;20201;-80
2021/12/26 11:28:14;;;;;;;5.10;2.90;;;-4.00;99.90;;;;;;5034450;28;20182;-80
2021/12/26 11:30:42;;;;;;;3.43;2.63;;;-4.10;99.90;;;;;;5040862;28;20220;-79
2021/12/26 11:33:09;;;;;;;4.00;2.53;;;-4.00;99.90;;;;;;5033719;28;20173;-80
2021/12/26 11:35:37;;;;;;;6.47;2.77;;;-4.00;99.90;;;;;;5043573;28;20180;-80
2021/12/26 11:38:03;;;;;;;3.97;2.80;;;-3.90;99.90;;;;;;5030929;28;20198;-81
2021/12/26 11:40:59;;;;;;;4.20;2.73;;;-3.90;99.90;;;;;;5097300;22;20248;-81
2021/12/26 11:43:55;;;;;;;4.63;2.70;;;-3.80;99.90;;;;;;5060062;28;20660;-82
2021/12/26 11:47:13;;;;;;;2.93;2.30;;;-3.80;99.90;;;;;;5004364;28;20222;-82
2021/12/26 11:50:36;;;;;;;4.00;2.73;;;-3.70;99.90;;;;;;5013979;28;20213;-84
2021/12/26 11:53:50;;;;;;;3.43;2.47;;;-3.70;99.90;;;;;;5039771;28;20576;-83
2021/12/26 11:56:58;;;;;;;4.67;2.90;;;-3.50;99.90;;;;;;5036435;28;20175;-82
2021/12/26 11:59:51;;;;;;;3.37;2.73;;;-3.50;99.90;;;;;;5010918;28;20549;-84
2021/12/26 12:02:44;;;;;;;5.20;2.73;;;-3.50;99.90;;;;;;5023434;28;20260;-83
2021/12/26 12:05:20;;;;;;;3.63;2.63;;;-3.40;99.90;;;;;;5023941;28;20192;-82
2021/12/26 12:08:14;;;;;;;2.73;2.10;;;-3.30;99.90;;;;;;5022625;28;20182;-82
2021/12/26 12:10:54;;;;;;;3.50;2.30;;;-3.30;99.50;;;;;;5021989;28;20208;-81
2021/12/26 12:13:26;;;;;;;4.20;2.30;;;-3.30;99.20;;;;;;5022951;28;20178;-82
2021/12/26 12:16:03;;;;;;;4.83;2.60;;;-3.20;98.90;;;;;;5034038;28;20172;-82
2021/12/26 12:18:33;;;;;;;3.43;2.07;;;-3.20;98.80;;;;;;5028277;28;20186;-81
2021/12/26 12:21:20;;;;;;;2.70;2.20;;;-3.20;98.40;;;;;;5030565;28;20206;-81
2021/12/26 12:24:05;;;;;;;3.10;2.20;;;-3.10;98.50;;;;;;5037952;28;20608;-83
2021/12/26 12:26:37;;;;;;;3.47;2.10;;;-3.10;98.40;;;;;;5031429;28;20182;-82
2021/12/26 12:29:02;;;;;;;3.17;2.00;;;-3.00;98.40;;;;;;5022939;28;20190;-82
2021/12/26 12:31:28;;;;;;;5.37;2.47;;;-3.00;98.80;;;;;;5026784;28;20542;-82
2021/12/26 12:34:03;;;;;;;3.40;2.37;;;-3.00;98.80;;;;;;5036883;28;20588;-84
2021/12/26 12:36:32;;;;;;;3.97;2.10;;;-2.90;99.10;;;;;;5025796;28;20197;-82
2021/12/26 12:39:18;;;;;;;8.13;2.60;;;-2.90;98.50;;;;;;5025758;28;20621;-82
2021/12/26 12:41:49;;;;;;;4.67;2.43;;;-2.80;99.00;;;;;;5022725;28;20658;-82
2021/12/26 12:44:30;;;;;;;7.90;2.90;;;-2.80;99.80;;;;;;5035499;28;20220;-82
2021/12/26 12:47:17;;;;;;;3.43;2.40;;;-2.80;99.80;;;;;;5030437;28;20181;-81
2021/12/26 12:49:54;;;;;;;6.07;2.60;;;-2.80;98.90;;;;;;5033181;28;20265;-82
2021/12/26 12:52:43;;;;;;;4.23;2.90;;;-2.70;99.40;;;;;;5033134;28;20228;-81
2021/12/26 12:55:15;;;;;;;6.97;2.70;;;-2.70;99.50;;;;;;5029659;28;20179;-82
2021/12/26 12:57:53;;;;;;;5.60;2.70;;;-2.70;99.60;;;;;;5031693;28;20175;-82
2021/12/26 13:00:26;;;;;;;4.27;2.33;;;-2.70;99.50;;;;;;5032705;28;20598;-82
2021/12/26 13:02:57;;;;;;;3.67;2.40;;;-2.70;99.30;;;;;;5030995;28;20170;-82
2021/12/26 13:05:33;;;;;;;6.67;2.33;;;-2.70;99.40;;;;;;5016857;28;20196;-82
2021/12/26 13:08:02;;;;;;;5.07;2.40;;;-2.70;99.90;;;;;;5026376;28;20181;-82
2021/12/26 13:10:29;;;;;;;7.30;2.83;;;-2.60;99.50;;;;;;5029140;28;20607;-83
2021/12/26 13:13:07;;;;;;;3.97;2.60;;;-2.60;99.30;;;;;;5032161;28;20250;-82